WIMM/MES METAR and TAF weather

Enter ICAO airport designator
Station Type Date Time Source
WIMM METAR 2019/05/25 15:00 UTC NOAA

WIMM 251500Z 25005KT 8000 TS FEW016CB SCT017 25/25 Q1010 NOSIG


Station Type Date Time Source
WIMM Decoded METAR 2019/05/25 15:00 UTC NOAA

Medan / Polonia, Indonesia (WIMM) 03-34N 098-41E 25M
May 25, 2019 - 11:00 AM EDT / 2019.05.25 1500 UTC
Wind: from the WSW (250 degrees) at 6 MPH (5 KT):0
Visibility: 4 mile(s):0
Sky conditions: partly cloudy
Weather: thunder; Cumulonimbus clouds observed
Temperature: 77 F (25 C)
Dew Point: 77 F (25 C)
Relative Humidity: 100%
Pressure (altimeter): 29.83 in. Hg (1010 hPa)
ob: WIMM 251500Z 25005KT 8000 TS FEW016CB SCT017 25/25 Q1010 NOSIG
cycle: 15

Station Type Date Time Source
WIMM TAF 2019/05/25 12:09 UTC NOAA

TAF WIMM 251100Z 2512/2612 VRB05KT 4000 HZ FEW016CB SCT017
BECMG 2602/2604 02006KT 8000 SCT020

Example: see airport list